LIBNLIBA

Guest
Details From LIBN - LECCE
To LIBA - AMENDOLA
Flight Number -
Tags generated
Created
Modified
Stats Distance 135 nm / 250 km
Max Altitude 0 ft / 0 m
Waypoints 3
Social Downloads 0
Likes 0
Share VATSIM

Download

Looking for another format? Having issues loading an existing format? Contact us
Advertisement - Login to hide

Notes

None

Route

LIBN LUXIL LIBA

ID Type Via Altitude Latitude Longitude Leg Dist Tot Dist Heading (true) Name
O LIBN APT - 0 ft / 0 m 40.23898˚ 18.13309˚ - 0 nm - LECCE
LUXIL FIX - 0 ft / 0 m 40.81917˚ 16.87083˚ 67 nm 67 nm 302° / 301° -
O LIBA APT - 0 ft / 0 m 41.53956˚ 15.71387˚ 67 nm 135 nm 310° / 309° AMENDOLA

Altitude Profile

Advertisement - Login to hide

LIBN

Details ICAO LIBN (LCC)
Name LECCE
Region Italy
Timezone Europe/Rome (UTC+1.0)
Stats Elevation 156 ft / 48 m (AMSL)
Location 40.238982° 18.133091°
Runways 1
Magnetic Variation 3.885° E

METAR

LIBN 130455Z 17009KT 9999 FEW015 14/13 Q1020 RMK FEW VIS MIN 9999 WIND THR14 17008KT WIND THR32 17008KT BLU

Decode

TAF

Not found

Departure Runways

ID Width Length Bearing (true) Bearing (mag) Surface Threshold Offset Overrun Length
14 197 ft / 60 m 6,786 ft / 2,068 m 145.87° 141.99° Asphalt 197 ft / 60 m 0 ft / 0 m
32 197 ft / 60 m 6,786 ft / 2,068 m 325.87° 321.99° Asphalt 448 ft / 137 m 0 ft / 0 m

LIBA

Details ICAO LIBA
Name AMENDOLA
Region Italy
Timezone Europe/Rome (UTC+1.0)
Stats Elevation 183 ft / 56 m (AMSL)
Location 41.539558° 15.713874°
Runways 1
Magnetic Variation 3.592° E

METAR

LIBA 130455Z 23011KT 9999 FEW040 15/10 Q1016 RMK BKN SCT070 BKN200 VIS MIN 9999 WIND THR11 23013KT WIND THR29 /////KT BLU

Decode

TAF

Not found

Destination Runways

ID Width Length Bearing (true) Bearing (mag) Surface Threshold Offset Overrun Length
11 144 ft / 44 m 8,712 ft / 2,655 m 113.80° 110.21° Asphalt 0 ft / 0 m 194 ft / 59 m
29 144 ft / 44 m 8,712 ft / 2,655 m 293.82° 290.23° Asphalt 0 ft / 0 m 198 ft / 60 m